Time;durP1;ratioP1;P1;durP2;ratioP2;P2;SDS_P1;SDS_P2;PMS_P1;PMS_P2;Temp;Humidity;BMP_temperature;BMP_pressure;BME280_temperature;BME280_humidity;BME280_pressure;Samples;Min_cycle;Max_cycle;Signal;HPM_P1;HPM_P2
2021/01/17 14:18:47;;;;;;;68.82;30.40;;;5.50;73.80;;;;;;5160178;27;20689;-72
2021/01/17 14:21:13;;;;;;;58.75;23.30;;;4.40;75.90;;;;;;5098531;27;20090;-72
2021/01/17 14:23:39;;;;;;;51.45;22.40;;;4.00;72.80;;;;;;5159812;27;20676;-72
2021/01/17 14:26:05;;;;;;;46.90;24.13;;;3.70;70.50;;;;;;5125966;27;20399;-72
2021/01/17 14:28:31;;;;;;;63.05;23.40;;;3.40;70.40;;;;;;5152689;27;20043;-72
2021/01/17 14:30:56;;;;;;;59.97;23.50;;;3.10;71.30;;;;;;5112769;27;20176;-72
2021/01/17 14:33:22;;;;;;;61.90;27.15;;;2.90;72.40;;;;;;5148657;27;20071;-72
2021/01/17 14:35:48;;;;;;;67.38;29.75;;;2.70;71.30;;;;;;5151545;27;20084;-72
2021/01/17 14:38:14;;;;;;;67.97;28.13;;;2.60;71.80;;;;;;5108400;27;20123;-72
2021/01/17 14:40:40;;;;;;;62.90;28.23;;;2.50;71.90;;;;;;5087041;28;20188;-72
2021/01/17 14:43:05;;;;;;;63.40;24.75;;;2.40;71.10;;;;;;5083053;28;20064;-72
2021/01/17 14:45:31;;;;;;;76.35;27.42;;;2.40;72.30;;;;;;5081610;28;271928;-72
2021/01/17 14:47:57;;;;;;;63.13;25.48;;;2.40;74.20;;;;;;5101120;28;20052;-73
2021/01/17 14:50:23;;;;;;;63.50;23.55;;;2.30;75.00;;;;;;5105167;28;20120;-72
2021/01/17 14:52:49;;;;;;;77.20;27.83;;;2.20;74.80;;;;;;5104173;28;20093;-72
2021/01/17 14:55:15;;;;;;;65.50;25.08;;;2.20;73.00;;;;;;5103072;28;20277;-73
2021/01/17 14:57:49;;;;;;;62.88;24.30;;;2.10;74.10;;;;;;5102664;28;20044;-72
2021/01/17 15:00:15;;;;;;;85.88;27.17;;;2.10;73.00;;;;;;5084723;28;20699;-72
2021/01/17 15:02:41;;;;;;;95.20;29.25;;;2.10;72.80;;;;;;5105323;28;20599;-73
2021/01/17 15:05:08;;;;;;;68.38;26.42;;;2.10;73.00;;;;;;5104806;28;20046;-73
2021/01/17 15:07:33;;;;;;;75.70;26.25;;;2.10;72.70;;;;;;5098665;28;20126;-72
2021/01/17 15:09:59;;;;;;;81.30;25.73;;;2.10;73.70;;;;;;5104605;28;20110;-72
2021/01/17 15:12:25;;;;;;;84.55;28.00;;;2.00;75.00;;;;;;5103870;28;20672;-73
2021/01/17 15:14:51;;;;;;;99.38;32.00;;;2.00;74.40;;;;;;5104521;28;20036;-72
2021/01/17 15:17:17;;;;;;;126.10;32.08;;;2.00;74.40;;;;;;5104034;28;20090;-72
2021/01/17 15:19:42;;;;;;;77.65;26.92;;;2.00;75.00;;;;;;5105201;28;20043;-71
2021/01/17 15:22:09;;;;;;;84.05;26.38;;;1.90;75.20;;;;;;5102788;28;20044;-71
2021/01/17 15:24:35;;;;;;;79.70;27.98;;;1.90;77.30;;;;;;5103241;28;20040;-71
2021/01/17 15:27:00;;;;;;;90.72;28.38;;;1.90;76.70;;;;;;5103369;28;20592;-72
2021/01/17 15:29:27;;;;;;;117.30;37.40;;;1.90;75.20;;;;;;5094926;28;20420;-72
2021/01/17 15:31:52;;;;;;;104.75;36.97;;;1.80;74.60;;;;;;5090978;28;20040;-72
2021/01/17 15:34:18;;;;;;;101.35;34.10;;;1.80;75.80;;;;;;5091027;28;20461;-72
2021/01/17 15:36:45;;;;;;;116.53;45.40;;;1.80;77.10;;;;;;5089786;28;20155;-72
2021/01/17 15:39:11;;;;;;;93.15;38.35;;;1.80;78.10;;;;;;5090179;28;20772;-73
2021/01/17 15:41:36;;;;;;;95.57;39.38;;;1.70;77.90;;;;;;5090879;28;20047;-73
2021/01/17 15:44:03;;;;;;;114.72;34.40;;;1.70;77.10;;;;;;5090394;28;20032;-73
2021/01/17 15:46:30;;;;;;;108.75;37.05;;;1.70;78.40;;;;;;5072543;28;20036;-73
2021/01/17 15:48:56;;;;;;;96.90;32.47;;;1.70;77.90;;;;;;5089879;28;20063;-73
2021/01/17 15:51:28;;;;;;;99.05;35.08;;;1.60;76.10;;;;;;5089865;28;20051;-73
2021/01/17 15:53:54;;;;;;;94.53;30.35;;;1.60;75.00;;;;;;5089070;28;20040;-73
2021/01/17 15:56:21;;;;;;;82.25;29.17;;;1.60;76.50;;;;;;5089113;28;20055;-73
2021/01/17 15:58:47;;;;;;;103.55;32.95;;;1.50;74.90;;;;;;5090562;28;20044;-72
2021/01/17 16:01:21;;;;;;;101.45;30.88;;;1.50;76.50;;;;;;5089327;28;20425;-74
2021/01/17 16:03:46;;;;;;;92.90;33.72;;;1.50;75.50;;;;;;5091022;28;20127;-73
2021/01/17 16:06:12;;;;;;;89.57;29.80;;;1.50;76.30;;;;;;5089403;28;20123;-73
2021/01/17 16:08:39;;;;;;;104.90;33.45;;;1.50;76.00;;;;;;5090491;28;20101;-74
2021/01/17 16:11:04;;;;;;;120.93;36.80;;;1.50;77.40;;;;;;5084384;28;20036;-73
2021/01/17 16:13:30;;;;;;;118.53;36.83;;;1.50;76.40;;;;;;5090769;28;20344;-73
2021/01/17 16:15:56;;;;;;;117.45;36.42;;;1.50;77.40;;;;;;5089397;28;20074;-73
2021/01/17 16:18:23;;;;;;;93.78;31.50;;;1.50;78.40;;;;;;5089227;28;20453;-72
2021/01/17 16:20:49;;;;;;;122.82;37.17;;;1.50;72.90;;;;;;5090357;28;20073;-73
2021/01/17 16:23:16;;;;;;;105.40;32.97;;;1.60;75.60;;;;;;5087101;28;20058;-74
2021/01/17 16:25:44;;;;;;;99.50;34.50;;;1.60;77.80;;;;;;5089841;28;20105;-73
2021/01/17 16:28:10;;;;;;;111.38;36.05;;;1.60;75.40;;;;;;5084824;28;20427;-73
2021/01/17 16:30:36;;;;;;;116.38;33.88;;;1.60;75.80;;;;;;5089450;28;20043;-74
2021/01/17 16:33:04;;;;;;;108.55;32.55;;;1.60;77.70;;;;;;5088319;28;20111;-73
2021/01/17 16:35:31;;;;;;;94.38;31.90;;;1.60;75.60;;;;;;5089707;28;20051;-73
2021/01/17 16:38:00;;;;;;;104.32;35.45;;;1.60;75.70;;;;;;5088960;28;20401;-73
2021/01/17 16:40:26;;;;;;;79.18;28.50;;;1.60;75.00;;;;;;5088598;28;20036;-73
2021/01/17 16:42:58;;;;;;;99.53;31.95;;;1.60;74.80;;;;;;5089647;28;20051;-73
2021/01/17 16:45:24;;;;;;;98.32;30.80;;;1.60;75.90;;;;;;5088539;28;20055;-74
2021/01/17 16:47:50;;;;;;;96.15;37.15;;;1.50;76.80;;;;;;5088897;28;20081;-74
2021/01/17 16:50:16;;;;;;;96.65;33.58;;;1.60;78.20;;;;;;5088736;28;20043;-74
2021/01/17 16:52:43;;;;;;;112.55;35.70;;;1.60;78.70;;;;;;5087636;28;20047;-74
2021/01/17 16:55:12;;;;;;;107.50;34.60;;;1.50;77.70;;;;;;5088533;28;20071;-74
2021/01/17 16:57:39;;;;;;;99.30;31.75;;;1.50;78.50;;;;;;5071843;28;20036;-74
2021/01/17 17:00:06;;;;;;;99.95;35.22;;;1.50;77.80;;;;;;5088582;28;20558;-74
2021/01/17 17:02:33;;;;;;;109.28;33.72;;;1.40;77.70;;;;;;5089054;28;20293;-74
2021/01/17 17:04:59;;;;;;;120.53;35.90;;;1.50;79.00;;;;;;5088435;28;20119;-74
2021/01/17 17:07:25;;;;;;;108.70;33.03;;;1.50;78.40;;;;;;5088559;28;20043;-74
2021/01/17 17:09:50;;;;;;;104.00;34.55;;;1.50;79.40;;;;;;5087758;28;20390;-74
2021/01/17 17:12:18;;;;;;;101.97;33.17;;;1.50;78.20;;;;;;5087784;28;20039;-73
2021/01/17 17:14:44;;;;;;;116.93;36.38;;;1.50;78.80;;;;;;5088442;28;20446;-74
2021/01/17 17:17:09;;;;;;;100.75;32.33;;;1.50;76.10;;;;;;5086231;28;20052;-75
2021/01/17 17:19:35;;;;;;;85.82;28.10;;;1.50;76.00;;;;;;5068832;28;20144;-75
2021/01/17 17:22:01;;;;;;;105.00;33.83;;;1.60;77.00;;;;;;5088979;28;20163;-75
2021/01/17 17:24:27;;;;;;;111.78;38.85;;;1.60;77.80;;;;;;5088762;28;20362;-74
2021/01/17 17:26:56;;;;;;;91.18;31.25;;;1.60;77.50;;;;;;5084945;28;20487;-74
2021/01/17 17:29:22;;;;;;;108.53;30.08;;;1.60;75.90;;;;;;5088587;28;20054;-75
2021/01/17 17:31:52;;;;;;;142.60;38.92;;;1.60;76.80;;;;;;5087327;28;20060;-74
2021/01/17 17:34:20;;;;;;;89.50;28.45;;;1.60;75.70;;;;;;5086997;28;20047;-75
2021/01/17 17:36:47;;;;;;;86.47;26.83;;;1.70;75.90;;;;;;5087587;28;20076;-74
2021/01/17 17:39:18;;;;;;;92.38;30.30;;;1.70;76.30;;;;;;5086862;28;20043;-75
2021/01/17 17:41:46;;;;;;;90.43;30.33;;;1.70;76.60;;;;;;5068780;28;20081;-74
2021/01/17 17:44:13;;;;;;;91.32;30.02;;;1.70;75.80;;;;;;5067944;28;20047;-75
2021/01/17 17:46:39;;;;;;;75.25;26.23;;;1.60;75.90;;;;;;5087327;28;20055;-75
2021/01/17 17:49:05;;;;;;;121.50;37.00;;;1.60;74.80;;;;;;5087779;28;20047;-75
2021/01/17 17:51:32;;;;;;;122.00;37.55;;;1.60;74.20;;;;;;5087160;28;20044;-75
2021/01/17 17:53:59;;;;;;;101.47;33.80;;;1.50;73.80;;;;;;5086272;28;20105;-74
2021/01/17 17:56:25;;;;;;;107.93;38.55;;;1.50;74.20;;;;;;5070177;28;20131;-75
2021/01/17 17:58:51;;;;;;;102.25;36.10;;;1.50;73.60;;;;;;5087121;28;20425;-74
2021/01/17 18:01:17;;;;;;;111.45;37.53;;;1.40;75.10;;;;;;5086507;28;20108;-74
2021/01/17 18:03:43;;;;;;;108.80;32.45;;;1.40;74.20;;;;;;5087087;28;20048;-74
2021/01/17 18:06:10;;;;;;;116.72;34.53;;;1.30;73.70;;;;;;5086804;28;20158;-74
2021/01/17 18:08:37;;;;;;;103.75;37.42;;;1.30;73.70;;;;;;5087079;28;20197;-75
2021/01/17 18:11:05;;;;;;;98.07;34.58;;;1.20;73.10;;;;;;5086166;28;20092;-75
2021/01/17 18:13:32;;;;;;;81.78;31.80;;;1.20;73.10;;;;;;5087269;28;20047;-75
2021/01/17 18:15:59;;;;;;;105.68;32.40;;;1.10;73.00;;;;;;5069364;28;20040;-74
2021/01/17 18:18:26;;;;;;;63.50;27.60;;;1.00;73.00;;;;;;5088023;28;20060;-75
2021/01/17 18:20:53;;;;;;;72.35;28.13;;;1.00;73.30;;;;;;5087929;28;20065;-75
2021/01/17 18:23:20;;;;;;;70.97;28.05;;;0.90;73.00;;;;;;5087674;28;20447;-75
2021/01/17 18:25:47;;;;;;;86.35;28.50;;;0.90;73.40;;;;;;5087984;28;20044;-75
2021/01/17 18:28:13;;;;;;;70.10;27.30;;;0.80;72.90;;;;;;5069676;28;20044;-75
2021/01/17 18:30:40;;;;;;;77.88;24.02;;;0.80;72.90;;;;;;5086727;28;20117;-75
2021/01/17 18:33:07;;;;;;;76.63;26.45;;;0.70;73.20;;;;;;5086477;28;20528;-75
2021/01/17 18:35:33;;;;;;;85.47;27.17;;;0.70;73.10;;;;;;5070348;28;20072;-76
2021/01/17 18:38:00;;;;;;;85.72;26.52;;;0.70;73.40;;;;;;5087240;28;20051;-76
2021/01/17 18:40:27;;;;;;;93.82;27.08;;;0.70;73.90;;;;;;5070064;28;20135;-76
2021/01/17 18:42:54;;;;;;;111.55;28.77;;;0.70;75.00;;;;;;5086520;28;20040;-76
2021/01/17 18:45:21;;;;;;;67.70;20.88;;;0.80;75.20;;;;;;5069808;28;20036;-76
2021/01/17 18:47:48;;;;;;;86.50;23.50;;;0.80;76.70;;;;;;5086847;28;20044;-76
2021/01/17 18:50:15;;;;;;;92.00;23.15;;;0.90;75.90;;;;;;5069448;28;20051;-76
2021/01/17 18:52:41;;;;;;;75.97;20.50;;;0.90;75.80;;;;;;5086510;28;20044;-76
2021/01/17 18:55:08;;;;;;;77.30;17.02;;;1.00;75.20;;;;;;5069213;28;20430;-76
2021/01/17 18:57:35;;;;;;;60.15;13.32;;;1.00;75.60;;;;;;5069978;28;20047;-77
2021/01/17 19:00:03;;;;;;;82.03;14.95;;;1.10;74.90;;;;;;5086039;28;20814;-76
2021/01/17 19:02:30;;;;;;;56.17;11.00;;;1.10;74.40;;;;;;5069731;28;20431;-77
2021/01/17 19:04:58;;;;;;;56.50;12.05;;;1.20;75.20;;;;;;5072183;28;20062;-76
2021/01/17 19:07:29;;;;;;;53.03;11.40;;;1.20;74.70;;;;;;5090054;28;20044;-77
2021/01/17 19:09:55;;;;;;;42.78;7.20;;;1.20;75.80;;;;;;5091172;28;20040;-77
2021/01/17 19:12:21;;;;;;;54.05;9.27;;;1.30;76.30;;;;;;5090345;28;20044;-76
2021/01/17 19:14:48;;;;;;;51.42;9.20;;;1.30;77.00;;;;;;5087425;28;20079;-78
2021/01/17 19:17:14;;;;;;;49.05;6.72;;;1.30;77.20;;;;;;5086878;28;20080;-77
2021/01/17 19:19:40;;;;;;;38.53;6.75;;;1.30;75.40;;;;;;5090388;28;20096;-77
2021/01/17 19:22:06;;;;;;;36.15;6.55;;;1.40;77.80;;;;;;5089039;28;20063;-76
2021/01/17 19:24:32;;;;;;;68.43;8.52;;;1.40;76.40;;;;;;5089347;28;20139;-77
2021/01/17 19:27:00;;;;;;;40.20;7.25;;;1.40;75.60;;;;;;5083887;28;20395;-77
2021/01/17 19:29:30;;;;;;;38.08;5.50;;;1.30;76.80;;;;;;5082644;28;20422;-77
2021/01/17 19:31:58;;;;;;;41.15;8.80;;;1.30;75.80;;;;;;5088502;28;20122;-77
2021/01/17 19:34:25;;;;;;;40.88;7.72;;;1.30;77.30;;;;;;5079085;28;20131;-77
2021/01/17 19:36:55;;;;;;;48.88;8.77;;;1.30;76.80;;;;;;5066468;28;20129;-77
2021/01/17 19:39:22;;;;;;;40.30;6.00;;;1.30;77.70;;;;;;5081789;28;20727;-77
2021/01/17 19:41:49;;;;;;;45.55;7.72;;;1.30;77.10;;;;;;5088023;28;20044;-77
2021/01/17 19:44:16;;;;;;;33.22;5.05;;;1.30;77.10;;;;;;5080751;28;20040;-77
2021/01/17 19:46:45;;;;;;;52.65;7.10;;;1.30;77.10;;;;;;5070815;28;20054;-77
2021/01/17 19:49:12;;;;;;;54.22;6.50;;;1.30;76.70;;;;;;5086459;28;20043;-77
2021/01/17 19:51:44;;;;;;;43.53;7.45;;;1.40;77.90;;;;;;5061782;28;20072;-77
2021/01/17 19:54:11;;;;;;;41.85;5.93;;;1.40;78.20;;;;;;5078434;28;20113;-77
2021/01/17 19:56:38;;;;;;;57.55;8.77;;;1.40;78.20;;;;;;5071787;28;20047;-77
2021/01/17 19:59:05;;;;;;;56.50;9.30;;;1.40;78.70;;;;;;5088218;28;20043;-77
2021/01/17 20:01:32;;;;;;;51.58;6.65;;;1.40;78.70;;;;;;5089014;28;20059;-78
2021/01/17 20:04:00;;;;;;;51.90;7.30;;;1.40;78.10;;;;;;5071667;28;20044;-77
2021/01/17 20:06:26;;;;;;;53.25;7.45;;;1.40;79.10;;;;;;5090186;28;20048;-77
2021/01/17 20:08:58;;;;;;;48.97;6.50;;;1.30;78.00;;;;;;5084437;28;20048;-77
2021/01/17 20:11:25;;;;;;;38.90;5.97;;;1.30;77.80;;;;;;5089049;28;20054;-77
2021/01/17 20:13:52;;;;;;;59.13;8.23;;;1.30;77.20;;;;;;5072072;28;20058;-77
2021/01/17 20:16:19;;;;;;;41.70;6.88;;;1.30;77.20;;;;;;5088582;28;20622;-78
2021/01/17 20:18:47;;;;;;;50.63;7.00;;;1.30;77.90;;;;;;5088632;28;20161;-77
2021/01/17 20:21:18;;;;;;;48.90;5.82;;;1.30;76.80;;;;;;5088039;28;20039;-78
2021/01/17 20:23:46;;;;;;;53.22;8.40;;;1.30;78.90;;;;;;5071561;28;20047;-77
2021/01/17 20:26:24;;;;;;;34.92;5.68;;;1.20;79.00;;;;;;5089021;28;20035;-77
2021/01/17 20:28:52;;;;;;;39.85;6.55;;;1.30;77.40;;;;;;5091809;28;20101;-77
2021/01/17 20:31:19;;;;;;;31.98;5.28;;;1.20;77.80;;;;;;5086557;28;20450;-77
2021/01/17 20:33:46;;;;;;;40.42;6.55;;;1.20;79.00;;;;;;5071864;28;20081;-77
2021/01/17 20:36:27;;;;;;;57.97;8.38;;;1.20;77.80;;;;;;5087933;28;20047;-78
2021/01/17 20:38:54;;;;;;;38.45;6.05;;;1.20;79.60;;;;;;5071283;28;20036;-77
2021/01/17 20:41:21;;;;;;;41.08;6.45;;;1.20;80.70;;;;;;5088047;28;20036;-77
2021/01/17 20:43:49;;;;;;;38.17;7.10;;;1.30;82.10;;;;;;5071600;28;20056;-77
2021/01/17 20:46:15;;;;;;;38.85;8.20;;;1.30;79.20;;;;;;5087724;28;20116;-78
2021/01/17 20:48:45;;;;;;;37.28;6.53;;;1.30;78.80;;;;;;5071631;28;20135;-78
2021/01/17 20:51:12;;;;;;;41.65;6.55;;;1.30;78.50;;;;;;5070871;28;20048;-77
2021/01/17 20:53:41;;;;;;;41.80;6.40;;;1.30;78.80;;;;;;5088239;28;20054;-78
2021/01/17 20:56:08;;;;;;;48.30;7.10;;;1.30;78.90;;;;;;5087770;28;20572;-78
2021/01/17 20:58:34;;;;;;;43.22;7.18;;;1.30;81.20;;;;;;5088425;28;20140;-77
2021/01/17 21:01:01;;;;;;;49.10;8.93;;;1.20;79.10;;;;;;5087939;28;20048;-78
2021/01/17 21:03:28;;;;;;;35.60;7.47;;;1.20;79.00;;;;;;5087052;28;20577;-77
2021/01/17 21:05:54;;;;;;;35.97;6.72;;;1.30;80.80;;;;;;5070519;28;20044;-78
2021/01/17 21:08:22;;;;;;;47.10;7.45;;;1.20;78.50;;;;;;5088267;28;20040;-78
2021/01/17 21:10:48;;;;;;;52.20;7.82;;;1.20;79.80;;;;;;5071537;28;20070;-78
2021/01/17 21:13:14;;;;;;;53.35;10.30;;;1.20;79.40;;;;;;5070933;28;20059;-78
2021/01/17 21:15:41;;;;;;;36.78;6.63;;;1.20;78.80;;;;;;5087468;28;20054;-78
2021/01/17 21:18:08;;;;;;;41.10;6.22;;;1.20;79.00;;;;;;5088539;28;20452;-78
2021/01/17 21:20:35;;;;;;;46.80;7.30;;;1.20;80.00;;;;;;5087965;28;20394;-78
2021/01/17 21:23:02;;;;;;;50.00;11.02;;;1.20;77.80;;;;;;5065659;28;20074;-78
2021/01/17 21:25:29;;;;;;;56.85;13.57;;;1.20;77.50;;;;;;5070575;28;20048;-78
2021/01/17 21:27:55;;;;;;;40.88;7.88;;;1.20;77.00;;;;;;5086461;28;20070;-78
2021/01/17 21:30:22;;;;;;;57.78;10.75;;;1.20;77.30;;;;;;5087452;28;20044;-78
2021/01/17 21:32:48;;;;;;;49.95;10.07;;;1.10;76.70;;;;;;5088333;28;20101;-77
2021/01/17 21:35:14;;;;;;;61.00;11.10;;;1.10;79.80;;;;;;5069682;28;20047;-78
2021/01/17 21:37:41;;;;;;;48.63;10.85;;;1.10;78.00;;;;;;5088545;28;20051;-78
2021/01/17 21:40:11;;;;;;;47.72;7.63;;;1.20;80.20;;;;;;5087321;28;20078;-77
2021/01/17 21:42:38;;;;;;;42.72;8.57;;;1.20;81.50;;;;;;5088633;28;20521;-78
2021/01/17 21:45:05;;;;;;;37.15;6.03;;;1.30;83.70;;;;;;5087726;28;20443;-79
2021/01/17 21:47:38;;;;;;;46.67;8.45;;;1.40;83.50;;;;;;5070624;28;20538;-78
2021/01/17 21:50:06;;;;;;;45.08;5.32;;;1.50;81.10;;;;;;5086424;28;20051;-79
2021/01/17 21:52:37;;;;;;;31.60;4.95;;;1.50;79.60;;;;;;5087103;28;20510;-78
2021/01/17 21:55:04;;;;;;;44.15;5.10;;;1.50;79.30;;;;;;5093812;28;20121;-78
2021/01/17 21:57:37;;;;;;;42.95;5.93;;;1.40;79.70;;;;;;5067078;28;20325;-78
2021/01/17 22:00:07;;;;;;;41.85;7.47;;;1.40;81.80;;;;;;5086720;28;20132;-78
2021/01/17 22:02:33;;;;;;;25.08;4.70;;;1.40;80.30;;;;;;5070668;28;20044;-78
2021/01/17 22:04:59;;;;;;;48.38;9.20;;;1.40;80.60;;;;;;5070028;28;20040;-78
2021/01/17 22:07:25;;;;;;;48.72;8.75;;;1.40;79.90;;;;;;5089141;28;20051;-78
2021/01/17 22:09:51;;;;;;;50.20;7.28;;;1.40;81.30;;;;;;5087461;28;20377;-77
2021/01/17 22:12:18;;;;;;;34.53;6.53;;;1.40;79.60;;;;;;5087884;28;20040;-77
2021/01/17 22:14:44;;;;;;;42.65;5.68;;;1.40;80.00;;;;;;5087232;28;20131;-77
2021/01/17 22:17:10;;;;;;;38.67;5.43;;;1.50;79.70;;;;;;5085935;28;20079;-78
2021/01/17 22:19:37;;;;;;;31.25;4.93;;;1.50;79.40;;;;;;5087083;28;20071;-78
2021/01/17 22:22:03;;;;;;;34.25;6.88;;;1.50;79.40;;;;;;5086271;28;20048;-77
2021/01/17 22:24:29;;;;;;;39.70;6.10;;;1.60;79.10;;;;;;5087492;28;20036;-77
2021/01/17 22:26:56;;;;;;;38.58;6.65;;;1.60;79.40;;;;;;5067749;28;20437;-78
2021/01/17 22:29:22;;;;;;;32.45;5.30;;;1.60;79.10;;;;;;5081247;28;20040;-77
2021/01/17 22:31:49;;;;;;;32.20;4.45;;;1.60;79.10;;;;;;5083439;28;20063;-77
2021/01/17 22:34:15;;;;;;;29.52;5.43;;;1.70;78.40;;;;;;5077850;28;60680;-77
2021/01/17 22:36:44;;;;;;;27.70;5.10;;;1.60;78.90;;;;;;5082104;28;20106;-77
2021/01/17 22:39:12;;;;;;;31.75;7.32;;;1.70;79.20;;;;;;5084089;28;20082;-77
2021/01/17 22:41:39;;;;;;;33.55;3.65;;;1.70;79.50;;;;;;5086519;28;20448;-77
2021/01/17 22:44:06;;;;;;;31.25;5.70;;;1.70;79.50;;;;;;5072849;28;20051;-77
2021/01/17 22:46:32;;;;;;;29.60;6.25;;;1.70;80.20;;;;;;5089856;28;20055;-77
2021/01/17 22:48:59;;;;;;;33.10;5.30;;;1.80;80.40;;;;;;5072648;28;20047;-77
2021/01/17 22:51:26;;;;;;;36.90;5.38;;;1.80;80.20;;;;;;5090628;28;20032;-77
2021/01/17 22:53:52;;;;;;;30.23;5.55;;;1.90;79.80;;;;;;5071338;28;20040;-77
2021/01/17 22:56:21;;;;;;;37.55;6.25;;;1.90;80.50;;;;;;5090644;28;20181;-77
2021/01/17 22:58:48;;;;;;;35.60;5.97;;;2.00;79.80;;;;;;5087845;28;20063;-77
2021/01/17 23:01:14;;;;;;;20.10;4.72;;;2.00;79.70;;;;;;5086757;28;20463;-77
2021/01/17 23:03:41;;;;;;;32.95;4.75;;;2.00;81.00;;;;;;5085129;28;20044;-77
2021/01/17 23:06:14;;;;;;;28.25;6.38;;;2.00;79.80;;;;;;5081853;28;20046;-76
2021/01/17 23:08:42;;;;;;;24.17;4.30;;;1.90;79.70;;;;;;5069460;28;20105;-76
2021/01/17 23:11:08;;;;;;;25.00;3.90;;;1.90;81.80;;;;;;5078846;28;20383;-77
2021/01/17 23:13:35;;;;;;;37.97;6.13;;;1.80;80.40;;;;;;5072580;28;20399;-77
2021/01/17 23:16:01;;;;;;;40.65;5.75;;;1.80;80.50;;;;;;5080835;28;20322;-77
2021/01/17 23:18:27;;;;;;;33.30;5.80;;;1.70;80.20;;;;;;5090240;28;20170;-77
2021/01/17 23:20:53;;;;;;;40.70;6.70;;;1.70;82.00;;;;;;5089855;28;20050;-77
2021/01/17 23:23:19;;;;;;;45.90;5.47;;;1.70;82.10;;;;;;5090627;28;20059;-77
2021/01/17 23:25:45;;;;;;;31.77;5.13;;;1.70;82.50;;;;;;5091623;28;20051;-77
2021/01/17 23:28:11;;;;;;;38.95;6.30;;;1.60;81.00;;;;;;5081664;28;20143;-77
2021/01/17 23:30:37;;;;;;;27.23;4.72;;;1.60;80.20;;;;;;5089937;28;20044;-77
2021/01/17 23:33:04;;;;;;;30.42;8.00;;;1.60;82.30;;;;;;5068311;28;20425;-77
2021/01/17 23:35:30;;;;;;;40.90;6.00;;;1.60;82.00;;;;;;5075585;28;20159;-77
2021/01/17 23:37:56;;;;;;;32.00;6.30;;;1.60;81.10;;;;;;5074935;28;20487;-77
2021/01/17 23:40:22;;;;;;;33.45;5.57;;;1.60;80.50;;;;;;5070702;28;20127;-77
2021/01/17 23:42:49;;;;;;;25.92;5.30;;;1.50;80.60;;;;;;5070166;28;20044;-77
2021/01/17 23:45:15;;;;;;;29.77;4.80;;;1.50;82.10;;;;;;5067553;28;20093;-77
2021/01/17 23:47:41;;;;;;;23.13;4.57;;;1.50;81.20;;;;;;5089946;28;20404;-77
2021/01/17 23:50:08;;;;;;;32.40;5.95;;;1.50;80.10;;;;;;5090012;28;20048;-77
2021/01/17 23:52:40;;;;;;;31.48;5.70;;;1.40;81.60;;;;;;5090107;28;20071;-77
2021/01/17 23:55:07;;;;;;;32.20;6.07;;;1.40;83.40;;;;;;5090362;28;20040;-78
2021/01/17 23:57:34;;;;;;;27.17;6.10;;;1.40;82.20;;;;;;5056258;28;20089;-77
